createdAt,value
2023-01-25T00:00:05.620Z,1025
2023-01-25T00:03:05.868Z,1025
2023-01-25T00:06:05.627Z,1025
2023-01-25T00:09:05.633Z,1025
2023-01-25T00:12:05.487Z,1025
2023-01-25T00:15:05.953Z,1025
2023-01-25T00:18:05.591Z,1025
2023-01-25T00:21:05.581Z,1025
2023-01-25T00:24:05.887Z,1025
2023-01-25T00:27:05.597Z,1025
2023-01-25T00:30:05.576Z,1025
2023-01-25T00:33:05.549Z,1025
2023-01-25T00:36:05.579Z,1025
2023-01-25T00:39:05.629Z,1025
2023-01-25T00:42:05.627Z,1025
2023-01-25T00:45:06.077Z,1025
2023-01-25T00:48:05.603Z,1025
2023-01-25T00:51:05.571Z,1025
2023-01-25T00:54:05.590Z,1025
2023-01-25T00:57:05.543Z,1025
2023-01-25T01:00:05.684Z,1025
2023-01-25T01:03:05.587Z,1025
2023-01-25T01:06:05.551Z,1025
2023-01-25T01:09:05.558Z,1025
2023-01-25T01:12:05.596Z,1025
2023-01-25T01:15:05.889Z,1025
2023-01-25T01:18:05.575Z,1025
2023-01-25T01:21:05.528Z,1025
2023-01-25T01:24:05.798Z,1024
2023-01-25T01:27:05.607Z,1024
2023-01-25T01:30:05.565Z,1024
2023-01-25T01:33:05.595Z,1024
2023-01-25T01:36:05.599Z,1024
2023-01-25T01:39:05.631Z,1024
2023-01-25T01:42:05.517Z,1024
2023-01-25T01:45:06.013Z,1024
2023-01-25T01:48:05.604Z,1024
2023-01-25T01:51:05.650Z,1024
2023-01-25T01:54:05.593Z,1024
2023-01-25T01:57:05.578Z,1024
2023-01-25T02:00:05.583Z,1024
2023-01-25T02:03:05.728Z,1024
2023-01-25T02:06:05.480Z,1024
2023-01-25T02:09:05.644Z,1024
2023-01-25T02:12:05.578Z,1024
2023-01-25T02:15:05.687Z,1024
2023-01-25T02:18:05.586Z,1024
2023-01-25T02:21:05.655Z,1024
2023-01-25T02:24:05.920Z,1024
2023-01-25T02:27:05.529Z,1024
2023-01-25T02:30:05.540Z,1024
2023-01-25T02:33:05.566Z,1024
2023-01-25T02:36:05.513Z,1024
2023-01-25T02:39:05.601Z,1024
2023-01-25T02:42:05.580Z,1024
2023-01-25T02:45:05.777Z,1024
2023-01-25T02:48:05.644Z,1024
2023-01-25T02:51:05.623Z,1024
2023-01-25T02:54:05.615Z,1024
2023-01-25T02:57:05.793Z,1024
2023-01-25T03:00:05.572Z,1024
2023-01-25T03:03:05.823Z,1024
2023-01-25T03:06:05.613Z,1024
2023-01-25T03:09:05.598Z,1024
2023-01-25T03:12:05.582Z,1024
2023-01-25T03:15:05.862Z,1024
2023-01-25T03:18:09.190Z,1024
2023-01-25T03:21:05.556Z,1023
2023-01-25T03:24:05.811Z,1023
2023-01-25T03:27:05.712Z,1023
2023-01-25T03:30:05.579Z,1023
2023-01-25T03:33:05.577Z,1023
2023-01-25T03:36:06.017Z,1023
2023-01-25T03:39:05.579Z,1023
2023-01-25T03:42:05.521Z,1023
2023-01-25T03:45:05.644Z,1024
2023-01-25T03:48:05.604Z,1024
2023-01-25T03:51:05.604Z,1024
2023-01-25T03:54:05.532Z,1024
2023-01-25T03:57:05.551Z,1024
2023-01-25T04:00:05.762Z,1024
2023-01-25T04:03:05.607Z,1024
2023-01-25T04:06:05.603Z,1023
2023-01-25T04:09:05.561Z,1023
2023-01-25T04:12:05.568Z,1023
2023-01-25T04:15:05.568Z,1023
2023-01-25T04:18:05.634Z,1023
2023-01-25T04:21:05.577Z,1023
2023-01-25T04:24:05.866Z,1023
2023-01-25T04:27:05.626Z,1023
2023-01-25T04:30:05.530Z,1023
2023-01-25T04:33:05.651Z,1023
2023-01-25T04:36:05.614Z,1023
2023-01-25T04:39:05.805Z,1023
2023-01-25T04:42:05.623Z,1023
2023-01-25T04:45:05.736Z,1023
2023-01-25T04:48:05.642Z,1023
2023-01-25T04:51:05.568Z,1023
2023-01-25T04:54:05.553Z,1023
2023-01-25T04:57:05.565Z,1023
2023-01-25T05:00:05.636Z,1023
2023-01-25T05:03:05.601Z,1023
2023-01-25T05:06:05.652Z,1023
2023-01-25T05:09:05.672Z,1023
2023-01-25T05:12:05.572Z,1023
2023-01-25T05:15:05.580Z,1023
2023-01-25T05:18:05.553Z,1023
2023-01-25T05:21:05.597Z,1023
2023-01-25T05:24:05.832Z,1023
2023-01-25T05:27:05.604Z,1023
2023-01-25T05:30:05.601Z,1023
2023-01-25T05:33:06.377Z,1023
2023-01-25T05:36:05.595Z,1023
2023-01-25T05:39:05.880Z,1023
2023-01-25T05:42:05.547Z,1023
2023-01-25T05:45:05.807Z,1023
2023-01-25T05:48:05.550Z,1023
2023-01-25T05:51:05.554Z,1023
2023-01-25T05:54:05.569Z,1023
2023-01-25T05:57:05.771Z,1023
2023-01-25T06:00:05.645Z,1023
2023-01-25T06:03:06.307Z,1022
2023-01-25T06:06:05.541Z,1022
2023-01-25T06:09:05.546Z,1023
2023-01-25T06:12:05.660Z,1023
2023-01-25T06:15:05.574Z,1023
2023-01-25T06:18:05.651Z,1023
2023-01-25T06:21:05.654Z,1023
2023-01-25T06:24:05.850Z,1023
2023-01-25T06:27:05.650Z,1023
2023-01-25T06:30:05.600Z,1023
2023-01-25T06:33:05.586Z,1023
2023-01-25T06:36:05.596Z,1023
2023-01-25T06:39:05.625Z,1023
2023-01-25T06:42:05.569Z,1023
2023-01-25T06:45:05.725Z,1023
2023-01-25T06:48:05.583Z,1023
2023-01-25T06:51:05.648Z,1023
2023-01-25T06:54:05.551Z,1023
2023-01-25T06:57:05.602Z,1023
2023-01-25T07:00:05.673Z,1023
2023-01-25T07:03:05.932Z,1023
2023-01-25T07:06:05.561Z,1023
2023-01-25T07:09:05.569Z,1023
2023-01-25T07:12:05.616Z,1023
2023-01-25T07:15:05.630Z,1023
2023-01-25T07:18:21.193Z,1023
2023-01-25T07:21:05.657Z,1023
2023-01-25T07:24:05.977Z,1023
2023-01-25T07:27:05.631Z,1023
2023-01-25T07:30:05.643Z,1023
2023-01-25T07:33:05.658Z,1023
2023-01-25T07:36:05.716Z,1022
2023-01-25T07:39:05.653Z,1022
2023-01-25T07:42:05.591Z,1022
2023-01-25T07:45:05.628Z,1022
2023-01-25T07:48:05.637Z,1022
2023-01-25T07:51:05.705Z,1022
2023-01-25T07:54:05.645Z,1022
2023-01-25T07:57:05.599Z,1023
2023-01-25T08:00:06.390Z,1023
2023-01-25T08:03:05.621Z,1023
2023-01-25T08:06:05.700Z,1023
2023-01-25T08:09:05.566Z,1023
2023-01-25T08:12:07.818Z,1023
2023-01-25T08:15:05.753Z,1023
2023-01-25T08:18:05.641Z,1023
2023-01-25T08:21:05.801Z,1023
2023-01-25T08:24:06.060Z,1023
2023-01-25T08:27:05.577Z,1023
2023-01-25T08:30:05.767Z,1023
2023-01-25T08:33:05.544Z,1023
2023-01-25T08:36:05.591Z,1022
2023-01-25T08:39:05.601Z,1022
2023-01-25T08:42:05.638Z,1022
2023-01-25T08:45:05.622Z,1022
2023-01-25T08:48:05.617Z,1022
2023-01-25T08:51:05.682Z,1022
2023-01-25T08:54:05.710Z,1022
2023-01-25T08:57:05.717Z,1022
2023-01-25T09:00:05.855Z,1022
2023-01-25T09:03:05.694Z,1022
2023-01-25T09:06:06.037Z,1022
2023-01-25T09:09:05.637Z,1021
2023-01-25T09:12:05.534Z,1021
2023-01-25T09:15:05.677Z,1021
2023-01-25T09:18:05.711Z,1021
2023-01-25T09:21:05.628Z,1021
2023-01-25T09:24:13.530Z,1021
2023-01-25T09:27:05.614Z,1021
2023-01-25T09:30:18.621Z,1021
2023-01-25T09:33:06.006Z,1021
2023-01-25T09:36:05.666Z,1021
2023-01-25T09:39:05.785Z,1021
2023-01-25T09:42:20.535Z,1021
2023-01-25T09:45:06.370Z,1021
2023-01-25T09:48:05.681Z,1021
2023-01-25T09:51:05.604Z,1022
2023-01-25T09:54:05.587Z,1022
2023-01-25T09:57:05.647Z,1021
2023-01-25T10:00:09.889Z,1021
2023-01-25T10:03:06.012Z,1021
2023-01-25T10:06:05.581Z,1021
2023-01-25T10:09:05.665Z,1021
2023-01-25T10:12:05.611Z,1021
2023-01-25T10:15:05.610Z,1021
2023-01-25T10:18:05.672Z,1021
2023-01-25T10:21:05.587Z,1021
2023-01-25T10:24:05.826Z,1021
2023-01-25T10:27:05.694Z,1021
2023-01-25T10:30:05.628Z,1021
2023-01-25T10:33:05.571Z,1020
2023-01-25T10:36:05.769Z,1020
2023-01-25T10:39:05.624Z,1020
2023-01-25T10:42:05.645Z,1020
2023-01-25T10:45:05.673Z,1020
2023-01-25T10:48:05.565Z,1020
2023-01-25T10:51:05.644Z,1020
2023-01-25T10:54:05.691Z,1020
2023-01-25T10:57:05.783Z,1020
2023-01-25T11:00:05.714Z,1020
2023-01-25T11:03:05.923Z,1020
2023-01-25T11:06:05.641Z,1020
2023-01-25T11:09:05.873Z,1020
2023-01-25T11:12:05.623Z,1020
2023-01-25T11:15:05.587Z,1020
2023-01-25T11:18:05.709Z,1020
2023-01-25T11:21:05.657Z,1020
2023-01-25T11:24:05.915Z,1020
2023-01-25T11:27:05.627Z,1020
2023-01-25T11:30:05.760Z,1020
2023-01-25T11:33:05.755Z,1020
2023-01-25T11:36:05.648Z,1020
2023-01-25T11:39:05.981Z,1020
2023-01-25T11:42:05.782Z,1019
2023-01-25T11:45:05.603Z,1019
2023-01-25T11:48:05.635Z,1019
2023-01-25T11:51:05.626Z,1019
2023-01-25T11:54:05.682Z,1019
2023-01-25T11:57:05.593Z,1019
2023-01-25T12:00:05.713Z,1019
2023-01-25T12:03:06.018Z,1019
2023-01-25T12:06:05.626Z,1019
2023-01-25T12:09:05.723Z,1019
2023-01-25T12:12:05.592Z,1019
2023-01-25T12:15:08.158Z,1019
2023-01-25T12:18:05.570Z,1019
2023-01-25T12:21:08.325Z,1019
2023-01-25T12:24:05.825Z,1019
2023-01-25T12:27:05.659Z,1019
2023-01-25T12:30:05.671Z,1019
2023-01-25T12:33:19.470Z,1019
2023-01-25T12:36:05.562Z,1018
2023-01-25T12:39:05.706Z,1018
2023-01-25T12:42:05.569Z,1018
2023-01-25T12:45:05.683Z,1018
2023-01-25T12:48:05.734Z,1018
2023-01-25T12:51:05.701Z,1018
2023-01-25T12:54:05.609Z,1018
2023-01-25T12:57:05.583Z,1018
2023-01-25T13:00:05.879Z,1018
2023-01-25T13:03:05.675Z,1018
2023-01-25T13:06:05.676Z,1018
2023-01-25T13:09:05.659Z,1018
2023-01-25T13:12:05.576Z,1018
2023-01-25T13:15:05.616Z,1018
2023-01-25T13:18:05.616Z,1018
2023-01-25T13:21:05.810Z,1018
2023-01-25T13:24:05.837Z,1018
2023-01-25T13:27:05.678Z,1018
2023-01-25T13:30:05.755Z,1018
2023-01-25T13:33:05.723Z,1018
2023-01-25T13:36:05.563Z,1017
2023-01-25T13:39:09.096Z,1017
2023-01-25T13:42:05.696Z,1017
2023-01-25T13:45:05.587Z,1017
2023-01-25T13:48:05.549Z,1017
2023-01-25T13:51:05.661Z,1017
2023-01-25T13:54:05.741Z,1017
2023-01-25T13:57:05.633Z,1017
2023-01-25T14:00:16.694Z,1017
2023-01-25T14:03:05.540Z,1017
2023-01-25T14:06:05.627Z,1017
2023-01-25T14:09:05.743Z,1017
2023-01-25T14:12:05.622Z,1017
2023-01-25T14:15:05.641Z,1017
2023-01-25T14:18:05.594Z,1017
2023-01-25T14:21:08.264Z,1017
2023-01-25T14:24:05.752Z,1017
2023-01-25T14:27:05.774Z,1017
2023-01-25T14:30:05.696Z,1017
2023-01-25T14:33:05.685Z,1017
2023-01-25T14:36:28.712Z,1017
2023-01-25T14:39:09.249Z,1017
2023-01-25T14:42:06.606Z,1017
2023-01-25T14:45:05.635Z,1017
2023-01-25T14:48:05.683Z,1016
2023-01-25T14:51:05.518Z,1017
2023-01-25T14:54:05.594Z,1017
2023-01-25T14:57:05.579Z,1017
2023-01-25T15:00:05.857Z,1017
2023-01-25T15:03:05.562Z,1017
2023-01-25T15:06:05.763Z,1017
2023-01-25T15:09:05.627Z,1017
2023-01-25T15:12:05.640Z,1017
2023-01-25T15:15:05.592Z,1017
2023-01-25T15:18:05.616Z,1017
2023-01-25T15:21:05.582Z,1016
2023-01-25T15:24:05.879Z,1016
2023-01-25T15:27:05.655Z,1016
2023-01-25T15:30:05.572Z,1016
2023-01-25T15:33:05.671Z,1016
2023-01-25T15:36:05.831Z,1016
2023-01-25T15:39:05.581Z,1017
2023-01-25T15:42:05.606Z,1017
2023-01-25T15:45:06.868Z,1017
2023-01-25T15:48:05.646Z,1017
2023-01-25T15:51:05.615Z,1017
2023-01-25T15:54:05.620Z,1017
2023-01-25T15:57:05.629Z,1017
2023-01-25T16:00:07.493Z,1017
2023-01-25T16:03:05.539Z,1017
2023-01-25T16:06:05.713Z,1017
2023-01-25T16:09:05.505Z,1017
2023-01-25T16:12:05.613Z,1017
2023-01-25T16:15:05.581Z,1017
2023-01-25T16:18:05.562Z,1017
2023-01-25T16:21:05.522Z,1017
2023-01-25T16:24:05.803Z,1017
2023-01-25T16:27:05.531Z,1017
2023-01-25T16:30:05.544Z,1017
2023-01-25T16:33:05.661Z,1017
2023-01-25T16:36:05.588Z,1017
2023-01-25T16:39:05.565Z,1017
2023-01-25T16:42:05.527Z,1016
2023-01-25T16:45:05.532Z,1016
2023-01-25T16:48:05.562Z,1016
2023-01-25T16:51:05.608Z,1016
2023-01-25T16:54:05.633Z,1016
2023-01-25T16:57:24.395Z,1016
2023-01-25T17:00:08.310Z,1015
2023-01-25T17:03:05.733Z,1015
2023-01-25T17:06:05.655Z,1015
2023-01-25T17:09:27.895Z,1015
2023-01-25T17:12:06.628Z,1015
2023-01-25T17:15:05.613Z,1015
2023-01-25T17:18:05.627Z,1015
2023-01-25T17:21:05.671Z,1015
2023-01-25T17:24:05.707Z,1015
2023-01-25T17:27:05.676Z,1015
2023-01-25T17:30:05.696Z,1015
2023-01-25T17:33:05.604Z,1016
2023-01-25T17:36:05.616Z,1016
2023-01-25T17:39:05.684Z,1016
2023-01-25T17:42:05.617Z,1016
2023-01-25T17:45:05.780Z,1016
2023-01-25T17:48:05.558Z,1016
2023-01-25T17:51:05.580Z,1016
2023-01-25T17:54:05.606Z,1015
2023-01-25T17:57:05.526Z,1015
2023-01-25T18:00:05.709Z,1015
2023-01-25T18:03:05.534Z,1015
2023-01-25T18:06:05.545Z,1015
2023-01-25T18:09:05.536Z,1015
2023-01-25T18:12:05.616Z,1015
2023-01-25T18:15:05.556Z,1015
2023-01-25T18:18:05.703Z,1015
2023-01-25T18:21:05.612Z,1015
2023-01-25T18:24:05.897Z,1015
2023-01-25T18:27:05.605Z,1015
2023-01-25T18:30:05.607Z,1015
2023-01-25T18:33:05.548Z,1015
2023-01-25T18:36:07.494Z,1015
2023-01-25T18:39:05.510Z,1015
2023-01-25T18:42:05.519Z,1015
2023-01-25T18:45:05.655Z,1015
2023-01-25T18:48:05.543Z,1015
2023-01-25T18:51:05.654Z,1015
2023-01-25T18:54:05.570Z,1014
2023-01-25T18:57:05.531Z,1014
2023-01-25T19:00:05.532Z,1014
2023-01-25T19:03:05.834Z,1014
2023-01-25T19:06:05.485Z,1014
2023-01-25T19:09:05.568Z,1014
2023-01-25T19:12:05.682Z,1014
2023-01-25T19:15:05.673Z,1014
2023-01-25T19:18:05.487Z,1014
2023-01-25T19:21:05.562Z,1014
2023-01-25T19:24:05.929Z,1014
2023-01-25T19:27:05.669Z,1014
2023-01-25T19:30:05.596Z,1014
2023-01-25T19:33:05.694Z,1014
2023-01-25T19:36:05.636Z,1014
2023-01-25T19:39:05.492Z,1014
2023-01-25T19:42:05.561Z,1014
2023-01-25T19:45:05.848Z,1015
2023-01-25T19:48:05.574Z,1014
2023-01-25T19:51:05.735Z,1014
2023-01-25T19:54:05.786Z,1014
2023-01-25T19:57:05.828Z,1014
2023-01-25T20:00:05.837Z,1014
2023-01-25T20:03:21.404Z,1014
2023-01-25T20:06:05.499Z,1014
2023-01-25T20:09:05.618Z,1014
2023-01-25T20:12:05.798Z,1014
2023-01-25T20:15:05.671Z,1014
2023-01-25T20:18:05.578Z,1014
2023-01-25T20:21:05.665Z,1014
2023-01-25T20:24:05.756Z,1013
2023-01-25T20:27:08.855Z,1013
2023-01-25T20:30:05.582Z,1013
2023-01-25T20:33:05.570Z,1013
2023-01-25T20:36:05.591Z,1013
2023-01-25T20:39:05.523Z,1014
2023-01-25T20:42:05.516Z,1014
2023-01-25T20:45:05.551Z,1014
2023-01-25T20:48:05.541Z,1014
2023-01-25T20:51:05.546Z,1014
2023-01-25T20:54:05.664Z,1014
2023-01-25T20:57:05.630Z,1014
2023-01-25T21:00:05.704Z,1013
2023-01-25T21:03:05.636Z,1013
2023-01-25T21:06:05.536Z,1013
2023-01-25T21:09:05.561Z,1013
2023-01-25T21:12:05.724Z,1013
2023-01-25T21:15:05.545Z,1013
2023-01-25T21:18:05.497Z,1013
2023-01-25T21:21:05.503Z,1013
2023-01-25T21:24:05.775Z,1013
2023-01-25T21:27:05.577Z,1013
2023-01-25T21:30:05.559Z,1013
2023-01-25T21:33:05.515Z,1013
2023-01-25T21:36:05.601Z,1013
2023-01-25T21:39:05.579Z,1013
2023-01-25T21:42:05.563Z,1013
2023-01-25T21:45:05.938Z,1013
2023-01-25T21:48:05.579Z,1013
2023-01-25T21:51:05.519Z,1013
2023-01-25T21:54:05.552Z,1013
2023-01-25T21:57:05.529Z,1013
2023-01-25T22:00:05.667Z,1013
2023-01-25T22:03:05.517Z,1013
2023-01-25T22:06:05.560Z,1013
2023-01-25T22:09:05.598Z,1013
2023-01-25T22:12:05.544Z,1013
2023-01-25T22:15:05.487Z,1013
2023-01-25T22:18:05.538Z,1013
2023-01-25T22:21:05.685Z,1013
2023-01-25T22:24:05.739Z,1013
2023-01-25T22:27:05.519Z,1013
2023-01-25T22:30:05.635Z,1013
2023-01-25T22:33:05.495Z,1013
2023-01-25T22:36:05.527Z,1013
2023-01-25T22:39:05.567Z,1013
2023-01-25T22:42:05.590Z,1013
2023-01-25T22:45:05.528Z,1013
2023-01-25T22:48:05.586Z,1013
2023-01-25T22:51:05.580Z,1013
2023-01-25T22:54:05.615Z,1013
2023-01-25T22:57:05.557Z,1013
2023-01-25T23:00:06.745Z,1013
2023-01-25T23:03:05.915Z,1013
2023-01-25T23:06:05.560Z,1013
2023-01-25T23:09:05.651Z,1012
2023-01-25T23:12:05.592Z,1012
2023-01-25T23:15:05.605Z,1012
2023-01-25T23:18:05.565Z,1012
2023-01-25T23:21:05.587Z,1012
2023-01-25T23:24:05.841Z,1012
2023-01-25T23:27:05.568Z,1013
2023-01-25T23:30:05.653Z,1012
2023-01-25T23:33:05.525Z,1012
2023-01-25T23:36:05.512Z,1012
2023-01-25T23:39:05.561Z,1012
2023-01-25T23:42:05.562Z,1012
2023-01-25T23:45:05.530Z,1012
2023-01-25T23:48:05.767Z,1012
2023-01-25T23:51:05.501Z,1012
2023-01-25T23:54:05.503Z,1012
2023-01-25T23:57:05.511Z,1012
